sensor_id;sensor_type;location;lat;lon;timestamp;pressure;altitude;pressure_sealevel;temperature;humidity
9423;BME280;65863;49.506;10.400;2023-01-29T00:00:38;99189.41;;;-2.17;71.60
9423;BME280;65863;49.506;10.400;2023-01-29T00:03:21;99186.66;;;-2.17;71.92
9423;BME280;65863;49.506;10.400;2023-01-29T00:06:07;99174.13;;;-2.18;71.90
9423;BME280;65863;49.506;10.400;2023-01-29T00:08:52;99134.34;;;-2.43;72.06
9423;BME280;65863;49.506;10.400;2023-01-29T00:11:36;99159.34;;;-2.24;71.71
9423;BME280;65863;49.506;10.400;2023-01-29T00:14:20;99145.16;;;-2.22;71.92
9423;BME280;65863;49.506;10.400;2023-01-29T00:17:04;99162.97;;;-2.27;71.89
9423;BME280;65863;49.506;10.400;2023-01-29T00:19:48;99166.13;;;-2.42;72.13
9423;BME280;65863;49.506;10.400;2023-01-29T00:22:32;99161.38;;;-2.54;72.26
9423;BME280;65863;49.506;10.400;2023-01-29T00:25:16;99156.91;;;-2.48;72.21
9423;BME280;65863;49.506;10.400;2023-01-29T00:28:00;99192.34;;;-2.24;72.61
9423;BME280;65863;49.506;10.400;2023-01-29T00:30:44;99134.63;;;-2.66;72.64
9423;BME280;65863;49.506;10.400;2023-01-29T00:33:28;99158.56;;;-2.67;72.27
9423;BME280;65863;49.506;10.400;2023-01-29T00:36:14;99165.88;;;-2.60;72.39
9423;BME280;65863;49.506;10.400;2023-01-29T00:38:59;99114.31;;;-2.85;72.66
9423;BME280;65863;49.506;10.400;2023-01-29T00:41:45;99106.88;;;-2.85;72.64
9423;BME280;65863;49.506;10.400;2023-01-29T00:44:48;99176.59;;;-2.49;72.47
9423;BME280;65863;49.506;10.400;2023-01-29T00:47:52;99158.88;;;-2.78;72.83
9423;BME280;65863;49.506;10.400;2023-01-29T00:50:36;99124.75;;;-2.93;72.56
9423;BME280;65863;49.506;10.400;2023-01-29T00:53:20;99118.91;;;-2.95;72.57
9423;BME280;65863;49.506;10.400;2023-01-29T00:56:04;99176.00;;;-2.57;72.85
9423;BME280;65863;49.506;10.400;2023-01-29T00:58:48;99104.69;;;-3.06;72.93
9423;BME280;65863;49.506;10.400;2023-01-29T01:01:32;99125.44;;;-2.89;72.68
9423;BME280;65863;49.506;10.400;2023-01-29T01:04:52;99131.16;;;-2.83;72.92
9423;BME280;65863;49.506;10.400;2023-01-29T01:07:36;99140.59;;;-2.84;72.99
9423;BME280;65863;49.506;10.400;2023-01-29T01:10:26;99137.94;;;-2.88;72.68
9423;BME280;65863;49.506;10.400;2023-01-29T01:13:10;99111.41;;;-3.07;72.71
9423;BME280;65863;49.506;10.400;2023-01-29T01:15:55;99117.56;;;-3.03;72.66
9423;BME280;65863;49.506;10.400;2023-01-29T01:18:39;99097.59;;;-3.20;72.62
9423;BME280;65863;49.506;10.400;2023-01-29T01:21:23;99158.06;;;-2.91;72.89
9423;BME280;65863;49.506;10.400;2023-01-29T01:24:07;99107.38;;;-3.19;72.88
9423;BME280;65863;49.506;10.400;2023-01-29T01:26:51;99135.56;;;-3.02;72.70
9423;BME280;65863;49.506;10.400;2023-01-29T01:29:35;99105.50;;;-3.22;72.49
9423;BME280;65863;49.506;10.400;2023-01-29T01:32:19;99175.72;;;-2.75;72.92
9423;BME280;65863;49.506;10.400;2023-01-29T01:35:04;99117.00;;;-3.28;72.48
9423;BME280;65863;49.506;10.400;2023-01-29T01:37:48;99144.13;;;-2.84;72.59
9423;BME280;65863;49.506;10.400;2023-01-29T01:40:32;99119.84;;;-3.15;72.31
9423;BME280;65863;49.506;10.400;2023-01-29T01:43:16;99104.66;;;-3.36;72.45
9423;BME280;65863;49.506;10.400;2023-01-29T01:46:00;99174.06;;;-2.73;72.57
9423;BME280;65863;49.506;10.400;2023-01-29T01:48:50;99141.75;;;-2.98;72.28
9423;BME280;65863;49.506;10.400;2023-01-29T01:51:39;99142.44;;;-2.94;72.51
9423;BME280;65863;49.506;10.400;2023-01-29T01:54:28;99123.06;;;-3.03;72.67
9423;BME280;65863;49.506;10.400;2023-01-29T01:57:18;99165.34;;;-2.55;72.43
9423;BME280;65863;49.506;10.400;2023-01-29T02:00:13;99165.66;;;-2.53;72.34
9423;BME280;65863;49.506;10.400;2023-01-29T02:02:58;99174.13;;;-2.60;72.61
9423;BME280;65863;49.506;10.400;2023-01-29T02:06:02;99139.94;;;-2.88;72.74
9423;BME280;65863;49.506;10.400;2023-01-29T02:09:14;99163.31;;;-2.67;72.62
9423;BME280;65863;49.506;10.400;2023-01-29T02:12:19;99082.75;;;-3.23;72.45
9423;BME280;65863;49.506;10.400;2023-01-29T02:15:05;99138.72;;;-2.87;72.68
9423;BME280;65863;49.506;10.400;2023-01-29T02:17:49;99138.09;;;-3.08;72.61
9423;BME280;65863;49.506;10.400;2023-01-29T02:20:34;99110.75;;;-3.28;72.66
9423;BME280;65863;49.506;10.400;2023-01-29T02:26:57;99102.00;;;-3.39;73.04
9423;BME280;65863;49.506;10.400;2023-01-29T02:29:54;99159.97;;;-3.04;72.84
9423;BME280;65863;49.506;10.400;2023-01-29T02:36:00;99147.66;;;-2.83;72.75
9423;BME280;65863;49.506;10.400;2023-01-29T02:44:46;99136.31;;;-3.15;72.78
9423;BME280;65863;49.506;10.400;2023-01-29T02:48:01;99142.47;;;-3.11;72.71
9423;BME280;65863;49.506;10.400;2023-01-29T02:50:51;99129.41;;;-3.06;72.44
9423;BME280;65863;49.506;10.400;2023-01-29T02:53:41;99073.88;;;-3.43;72.51
9423;BME280;65863;49.506;10.400;2023-01-29T02:56:38;99154.53;;;-2.91;72.28
9423;BME280;65863;49.506;10.400;2023-01-29T02:59:36;99151.69;;;-2.88;72.42
9423;BME280;65863;49.506;10.400;2023-01-29T03:06:04;99150.03;;;-2.85;72.20
9423;BME280;65863;49.506;10.400;2023-01-29T03:09:02;99146.50;;;-2.99;72.11
9423;BME280;65863;49.506;10.400;2023-01-29T03:11:53;99169.91;;;-2.94;72.07
9423;BME280;65863;49.506;10.400;2023-01-29T03:14:40;99123.34;;;-3.14;72.55
9423;BME280;65863;49.506;10.400;2023-01-29T03:17:50;99146.38;;;-2.95;72.55
9423;BME280;65863;49.506;10.400;2023-01-29T03:20:48;99073.88;;;-3.43;72.62
9423;BME280;65863;49.506;10.400;2023-01-29T03:23:37;99118.78;;;-3.21;72.22
9423;BME280;65863;49.506;10.400;2023-01-29T03:26:42;99167.88;;;-3.06;72.49
9423;BME280;65863;49.506;10.400;2023-01-29T03:29:49;99147.06;;;-3.20;72.63
9423;BME280;65863;49.506;10.400;2023-01-29T03:33:07;99158.44;;;-3.22;72.52
9423;BME280;65863;49.506;10.400;2023-01-29T03:35:58;99103.59;;;-3.71;72.47
9423;BME280;65863;49.506;10.400;2023-01-29T03:38:46;99072.19;;;-4.03;72.62
9423;BME280;65863;49.506;10.400;2023-01-29T03:41:45;99136.00;;;-3.50;72.92
9423;BME280;65863;49.506;10.400;2023-01-29T03:48:09;99147.66;;;-3.46;72.38
9423;BME280;65863;49.506;10.400;2023-01-29T03:51:14;99179.06;;;-3.30;72.32
9423;BME280;65863;49.506;10.400;2023-01-29T03:54:09;99179.91;;;-3.33;72.56
9423;BME280;65863;49.506;10.400;2023-01-29T03:57:07;99180.97;;;-3.27;72.50
9423;BME280;65863;49.506;10.400;2023-01-29T04:00:19;99170.84;;;-3.30;72.33
9423;BME280;65863;49.506;10.400;2023-01-29T04:03:39;99158.56;;;-3.58;72.34
9423;BME280;65863;49.506;10.400;2023-01-29T04:06:29;99129.47;;;-3.89;72.50
9423;BME280;65863;49.506;10.400;2023-01-29T04:09:30;99174.44;;;-3.50;72.46
9423;BME280;65863;49.506;10.400;2023-01-29T04:12:19;99170.22;;;-3.38;72.41
9423;BME280;65863;49.506;10.400;2023-01-29T04:15:08;99180.09;;;-3.24;72.57
9423;BME280;65863;49.506;10.400;2023-01-29T04:17:54;99103.75;;;-3.78;72.30
9423;BME280;65863;49.506;10.400;2023-01-29T04:20:51;99178.78;;;-3.19;72.42
9423;BME280;65863;49.506;10.400;2023-01-29T04:23:36;99177.41;;;-3.28;72.49
9423;BME280;65863;49.506;10.400;2023-01-29T04:29:40;99195.13;;;-3.29;72.36
9423;BME280;65863;49.506;10.400;2023-01-29T04:35:30;99206.09;;;-3.29;72.51
9423;BME280;65863;49.506;10.400;2023-01-29T04:38:27;99201.75;;;-3.26;72.36
9423;BME280;65863;49.506;10.400;2023-01-29T04:44:42;99184.56;;;-3.47;72.77
9423;BME280;65863;49.506;10.400;2023-01-29T04:54:01;99153.09;;;-3.58;72.55
9423;BME280;65863;49.506;10.400;2023-01-29T04:56:56;99154.59;;;-3.57;72.70
9423;BME280;65863;49.506;10.400;2023-01-29T04:59:47;99159.06;;;-3.64;72.79
9423;BME280;65863;49.506;10.400;2023-01-29T05:02:36;99181.13;;;-3.34;72.49
9423;BME280;65863;49.506;10.400;2023-01-29T05:05:21;99132.66;;;-3.57;72.52
9423;BME280;65863;49.506;10.400;2023-01-29T05:08:06;99155.97;;;-3.49;72.58
9423;BME280;65863;49.506;10.400;2023-01-29T05:10:52;99161.22;;;-3.38;72.59
9423;BME280;65863;49.506;10.400;2023-01-29T05:13:40;99153.66;;;-3.34;72.41
9423;BME280;65863;49.506;10.400;2023-01-29T05:16:28;99159.34;;;-3.41;72.50
9423;BME280;65863;49.506;10.400;2023-01-29T05:19:14;99140.44;;;-3.39;72.60
9423;BME280;65863;49.506;10.400;2023-01-29T05:21:59;99149.28;;;-3.32;72.39
9423;BME280;65863;49.506;10.400;2023-01-29T05:24:43;99138.56;;;-3.26;72.32
9423;BME280;65863;49.506;10.400;2023-01-29T05:27:33;99140.63;;;-3.30;72.38
9423;BME280;65863;49.506;10.400;2023-01-29T05:30:37;99119.03;;;-3.61;72.52
9423;BME280;65863;49.506;10.400;2023-01-29T05:33:26;99127.72;;;-3.33;72.86
9423;BME280;65863;49.506;10.400;2023-01-29T05:36:11;99119.25;;;-3.39;72.89
9423;BME280;65863;49.506;10.400;2023-01-29T05:38:54;99083.16;;;-3.70;73.11
9423;BME280;65863;49.506;10.400;2023-01-29T05:41:38;99113.41;;;-3.41;73.01
9423;BME280;65863;49.506;10.400;2023-01-29T05:44:22;99085.22;;;-3.58;72.99
9423;BME280;65863;49.506;10.400;2023-01-29T05:47:07;99081.53;;;-3.51;73.08
9423;BME280;65863;49.506;10.400;2023-01-29T05:49:51;99075.94;;;-3.48;73.03
9423;BME280;65863;49.506;10.400;2023-01-29T05:52:35;99123.72;;;-3.29;72.54
9423;BME280;65863;49.506;10.400;2023-01-29T05:55:19;99094.13;;;-3.54;72.69
9423;BME280;65863;49.506;10.400;2023-01-29T05:58:03;99112.66;;;-3.58;72.89
9423;BME280;65863;49.506;10.400;2023-01-29T06:00:47;99110.59;;;-3.70;72.96
9423;BME280;65863;49.506;10.400;2023-01-29T06:03:31;99084.19;;;-3.81;72.86
9423;BME280;65863;49.506;10.400;2023-01-29T06:06:16;99106.22;;;-3.68;72.81
9423;BME280;65863;49.506;10.400;2023-01-29T06:09:00;99078.44;;;-3.86;73.01
9423;BME280;65863;49.506;10.400;2023-01-29T06:11:45;99079.91;;;-3.82;73.38
9423;BME280;65863;49.506;10.400;2023-01-29T06:14:28;99115.09;;;-3.60;73.51
9423;BME280;65863;49.506;10.400;2023-01-29T06:17:12;99104.88;;;-3.59;73.35
9423;BME280;65863;49.506;10.400;2023-01-29T06:19:57;99143.56;;;-3.54;73.42
9423;BME280;65863;49.506;10.400;2023-01-29T06:22:41;99067.38;;;-3.99;73.30
9423;BME280;65863;49.506;10.400;2023-01-29T06:25:25;99123.03;;;-3.49;73.49
9423;BME280;65863;49.506;10.400;2023-01-29T06:28:09;99095.44;;;-3.58;73.72
9423;BME280;65863;49.506;10.400;2023-01-29T06:30:56;99143.38;;;-3.30;73.62
9423;BME280;65863;49.506;10.400;2023-01-29T06:33:40;99157.25;;;-3.21;73.53
9423;BME280;65863;49.506;10.400;2023-01-29T06:36:25;99102.03;;;-3.72;73.57
9423;BME280;65863;49.506;10.400;2023-01-29T06:39:09;99120.38;;;-3.69;73.60
9423;BME280;65863;49.506;10.400;2023-01-29T06:41:53;99163.88;;;-3.35;73.66
9423;BME280;65863;49.506;10.400;2023-01-29T06:44:37;99099.88;;;-3.65;73.77
9423;BME280;65863;49.506;10.400;2023-01-29T06:47:25;99120.41;;;-3.53;73.94
9423;BME280;65863;49.506;10.400;2023-01-29T06:50:10;99135.31;;;-3.37;74.02
9423;BME280;65863;49.506;10.400;2023-01-29T06:52:54;99159.13;;;-3.18;74.03
9423;BME280;65863;49.506;10.400;2023-01-29T06:55:38;99101.50;;;-3.51;73.76
9423;BME280;65863;49.506;10.400;2023-01-29T06:58:22;99121.16;;;-3.52;73.72
9423;BME280;65863;49.506;10.400;2023-01-29T07:01:09;99164.81;;;-3.25;74.00
9423;BME280;65863;49.506;10.400;2023-01-29T07:03:53;99171.34;;;-3.35;73.85
9423;BME280;65863;49.506;10.400;2023-01-29T07:06:37;99125.38;;;-3.64;73.98
9423;BME280;65863;49.506;10.400;2023-01-29T07:09:21;99151.09;;;-3.58;73.92
9423;BME280;65863;49.506;10.400;2023-01-29T07:12:06;99172.53;;;-3.36;73.76
9423;BME280;65863;49.506;10.400;2023-01-29T07:14:50;99135.13;;;-3.47;74.20
9423;BME280;65863;49.506;10.400;2023-01-29T07:17:35;99161.56;;;-3.36;73.81
9423;BME280;65863;49.506;10.400;2023-01-29T07:20:19;99149.81;;;-3.53;73.98
9423;BME280;65863;49.506;10.400;2023-01-29T07:23:03;99164.22;;;-3.33;74.15
9423;BME280;65863;49.506;10.400;2023-01-29T07:25:47;99131.28;;;-3.49;74.24
9423;BME280;65863;49.506;10.400;2023-01-29T07:28:39;99167.28;;;-3.14;73.96
9423;BME280;65863;49.506;10.400;2023-01-29T07:31:23;99163.03;;;-3.32;74.23
9423;BME280;65863;49.506;10.400;2023-01-29T07:34:07;99165.91;;;-3.22;73.92
9423;BME280;65863;49.506;10.400;2023-01-29T07:36:53;99181.59;;;-3.06;74.24
9423;BME280;65863;49.506;10.400;2023-01-29T07:39:37;99146.97;;;-3.33;73.67
9423;BME280;65863;49.506;10.400;2023-01-29T07:42:21;99140.19;;;-3.61;73.48
9423;BME280;65863;49.506;10.400;2023-01-29T07:45:07;99166.53;;;-3.31;73.71
9423;BME280;65863;49.506;10.400;2023-01-29T07:47:52;99177.28;;;-3.20;73.69
9423;BME280;65863;49.506;10.400;2023-01-29T07:50:38;99187.09;;;-3.06;73.43
9423;BME280;65863;49.506;10.400;2023-01-29T07:53:22;99179.06;;;-3.30;73.47
9423;BME280;65863;49.506;10.400;2023-01-29T07:56:06;99180.34;;;-3.35;73.19
9423;BME280;65863;49.506;10.400;2023-01-29T07:58:50;99178.56;;;-3.41;73.33
9423;BME280;65863;49.506;10.400;2023-01-29T08:01:34;99174.78;;;-3.48;73.13
9423;BME280;65863;49.506;10.400;2023-01-29T08:04:18;99169.53;;;-3.42;73.25
9423;BME280;65863;49.506;10.400;2023-01-29T08:07:02;99164.28;;;-3.36;73.07
9423;BME280;65863;49.506;10.400;2023-01-29T08:09:47;99173.31;;;-3.36;73.11
9423;BME280;65863;49.506;10.400;2023-01-29T08:12:31;99184.97;;;-3.15;73.05
9423;BME280;65863;49.506;10.400;2023-01-29T08:15:16;99135.66;;;-3.35;73.31
9423;BME280;65863;49.506;10.400;2023-01-29T08:18:00;99177.84;;;-2.96;73.29
9423;BME280;65863;49.506;10.400;2023-01-29T08:20:45;99175.13;;;-2.83;73.25
9423;BME280;65863;49.506;10.400;2023-01-29T08:23:29;99189.16;;;-2.94;73.27
9423;BME280;65863;49.506;10.400;2023-01-29T08:26:13;99181.34;;;-2.96;73.18
9423;BME280;65863;49.506;10.400;2023-01-29T08:28:57;99167.34;;;-3.01;73.16
9423;BME280;65863;49.506;10.400;2023-01-29T08:31:41;99127.66;;;-3.30;73.22
9423;BME280;65863;49.506;10.400;2023-01-29T08:34:25;99068.41;;;-3.93;72.62
9423;BME280;65863;49.506;10.400;2023-01-29T08:37:09;99173.16;;;-2.83;73.25
9423;BME280;65863;49.506;10.400;2023-01-29T08:39:54;99189.75;;;-2.57;72.76
9423;BME280;65863;49.506;10.400;2023-01-29T08:42:39;99177.94;;;-2.70;72.28
9423;BME280;65863;49.506;10.400;2023-01-29T08:45:24;99195.75;;;-2.33;72.02
9423;BME280;65863;49.506;10.400;2023-01-29T08:48:08;99199.56;;;-2.14;71.91
9423;BME280;65863;49.506;10.400;2023-01-29T08:50:56;99192.31;;;-1.95;71.74
9423;BME280;65863;49.506;10.400;2023-01-29T08:53:40;99184.34;;;-2.18;70.95
9423;BME280;65863;49.506;10.400;2023-01-29T08:56:24;99183.88;;;-2.30;70.71
9423;BME280;65863;49.506;10.400;2023-01-29T08:59:09;99216.94;;;-2.17;70.49
9423;BME280;65863;49.506;10.400;2023-01-29T09:01:53;99217.63;;;-2.00;69.84
9423;BME280;65863;49.506;10.400;2023-01-29T09:04:37;99235.56;;;-2.08;69.67
9423;BME280;65863;49.506;10.400;2023-01-29T09:07:21;99219.53;;;-2.26;69.56
9423;BME280;65863;49.506;10.400;2023-01-29T09:10:06;99187.47;;;-2.46;69.36
9423;BME280;65863;49.506;10.400;2023-01-29T09:12:50;99210.91;;;-2.41;69.30
9423;BME280;65863;49.506;10.400;2023-01-29T09:15:34;99217.88;;;-2.36;69.84
9423;BME280;65863;49.506;10.400;2023-01-29T09:18:18;99198.81;;;-2.73;69.53
9423;BME280;65863;49.506;10.400;2023-01-29T09:21:04;99214.28;;;-2.50;69.72
9423;BME280;65863;49.506;10.400;2023-01-29T09:23:48;99190.41;;;-2.53;70.08
9423;BME280;65863;49.506;10.400;2023-01-29T09:26:33;99176.81;;;-2.44;69.99
9423;BME280;65863;49.506;10.400;2023-01-29T09:29:17;99155.72;;;-2.34;69.90
9423;BME280;65863;49.506;10.400;2023-01-29T09:32:02;99128.84;;;-2.30;69.93
9423;BME280;65863;49.506;10.400;2023-01-29T09:34:47;99143.41;;;-2.03;69.82
9423;BME280;65863;49.506;10.400;2023-01-29T09:37:31;99146.53;;;-1.88;69.60
9423;BME280;65863;49.506;10.400;2023-01-29T09:46:05;99134.25;;;-1.75;68.71
9423;BME280;65863;49.506;10.400;2023-01-29T09:48:58;99150.56;;;-1.67;68.49
9423;BME280;65863;49.506;10.400;2023-01-29T09:51:54;99119.63;;;-1.84;68.70
9423;BME280;65863;49.506;10.400;2023-01-29T09:57:51;99129.31;;;-1.54;68.36
9423;BME280;65863;49.506;10.400;2023-01-29T10:10:09;99172.81;;;-0.66;66.82
9423;BME280;65863;49.506;10.400;2023-01-29T10:25:10;99196.22;;;-0.04;65.16
9423;BME280;65863;49.506;10.400;2023-01-29T10:27:58;99179.16;;;-0.34;64.72
9423;BME280;65863;49.506;10.400;2023-01-29T10:30:49;99204.63;;;-0.52;64.49
9423;BME280;65863;49.506;10.400;2023-01-29T10:36:45;99204.66;;;-0.87;65.08
9423;BME280;65863;49.506;10.400;2023-01-29T10:39:29;99185.31;;;-1.22;65.46
9423;BME280;65863;49.506;10.400;2023-01-29T10:42:30;99165.94;;;-1.31;65.98
9423;BME280;65863;49.506;10.400;2023-01-29T10:46:00;99186.53;;;-1.10;66.36
9423;BME280;65863;49.506;10.400;2023-01-29T10:58:02;99104.50;;;-1.06;66.75
9423;BME280;65863;49.506;10.400;2023-01-29T11:00:50;99119.28;;;-1.13;66.16
9423;BME280;65863;49.506;10.400;2023-01-29T11:03:35;99136.47;;;-0.87;66.25
9423;BME280;65863;49.506;10.400;2023-01-29T11:06:23;99115.38;;;-1.02;66.13
9423;BME280;65863;49.506;10.400;2023-01-29T11:09:30;99135.81;;;-0.78;66.14
9423;BME280;65863;49.506;10.400;2023-01-29T11:12:20;99110.84;;;-0.96;65.89
9423;BME280;65863;49.506;10.400;2023-01-29T11:15:13;99106.78;;;-1.05;66.25
9423;BME280;65863;49.506;10.400;2023-01-29T11:18:04;99125.50;;;-0.99;65.88
9423;BME280;65863;49.506;10.400;2023-01-29T11:21:00;99129.50;;;-1.00;66.23
9423;BME280;65863;49.506;10.400;2023-01-29T11:23:45;99093.94;;;-1.21;66.74
9423;BME280;65863;49.506;10.400;2023-01-29T11:26:34;99074.38;;;-1.00;66.87
9423;BME280;65863;49.506;10.400;2023-01-29T11:29:38;99088.31;;;-0.73;66.58
9423;BME280;65863;49.506;10.400;2023-01-29T11:32:25;99051.72;;;-0.95;66.67
9423;BME280;65863;49.506;10.400;2023-01-29T11:38:05;99055.22;;;-0.73;66.27
9423;BME280;65863;49.506;10.400;2023-01-29T11:40:50;99065.88;;;-0.62;65.96
9423;BME280;65863;49.506;10.400;2023-01-29T11:43:35;99066.44;;;-0.67;65.91
9423;BME280;65863;49.506;10.400;2023-01-29T11:46:19;99053.09;;;-0.68;65.43
9423;BME280;65863;49.506;10.400;2023-01-29T11:49:03;99040.88;;;-0.67;65.58
9423;BME280;65863;49.506;10.400;2023-01-29T11:51:52;99034.53;;;-0.46;65.68
9423;BME280;65863;49.506;10.400;2023-01-29T11:54:43;99019.44;;;-0.63;65.70
9423;BME280;65863;49.506;10.400;2023-01-29T11:57:37;99046.34;;;-0.05;65.82
9423;BME280;65863;49.506;10.400;2023-01-29T12:00:31;99015.56;;;-0.44;65.41
9423;BME280;65863;49.506;10.400;2023-01-29T12:03:42;99038.28;;;0.20;65.59
9423;BME280;65863;49.506;10.400;2023-01-29T12:06:35;99027.38;;;0.16;65.06
9423;BME280;65863;49.506;10.400;2023-01-29T12:09:25;99027.69;;;0.09;64.96
9423;BME280;65863;49.506;10.400;2023-01-29T12:12:17;98990.44;;;-0.27;64.83
9423;BME280;65863;49.506;10.400;2023-01-29T12:15:21;99016.00;;;0.14;64.53
9423;BME280;65863;49.506;10.400;2023-01-29T12:21:04;99008.47;;;-0.04;64.16
9423;BME280;65863;49.506;10.400;2023-01-29T12:24:01;98957.34;;;-0.27;64.37
9423;BME280;65863;49.506;10.400;2023-01-29T12:27:01;98997.94;;;0.13;64.30
9423;BME280;65863;49.506;10.400;2023-01-29T12:30:14;98998.88;;;0.56;64.63
9423;BME280;65863;49.506;10.400;2023-01-29T12:33:23;98991.81;;;0.64;64.60
9423;BME280;65863;49.506;10.400;2023-01-29T12:36:39;98955.09;;;0.08;63.78
9423;BME280;65863;49.506;10.400;2023-01-29T12:39:21;98965.06;;;-0.04;63.90
9423;BME280;65863;49.506;10.400;2023-01-29T12:42:14;98989.03;;;0.09;64.05
9423;BME280;65863;49.506;10.400;2023-01-29T12:45:05;98952.72;;;-0.30;63.76
9423;BME280;65863;49.506;10.400;2023-01-29T12:48:00;98951.19;;;-0.31;64.30
9423;BME280;65863;49.506;10.400;2023-01-29T12:50:49;98977.66;;;-0.03;64.61
9423;BME280;65863;49.506;10.400;2023-01-29T12:53:59;98943.59;;;0.10;64.88
9423;BME280;65863;49.506;10.400;2023-01-29T12:56:50;98916.91;;;-0.03;64.70
9423;BME280;65863;49.506;10.400;2023-01-29T12:59:42;98934.41;;;0.31;64.77
9423;BME280;65863;49.506;10.400;2023-01-29T13:05:19;98955.91;;;0.46;65.05
9423;BME280;65863;49.506;10.400;2023-01-29T13:08:13;98929.66;;;0.32;65.01
9423;BME280;65863;49.506;10.400;2023-01-29T13:11:01;98954.97;;;0.67;64.86
9423;BME280;65863;49.506;10.400;2023-01-29T13:14:03;98924.56;;;0.40;64.39
9423;BME280;65863;49.506;10.400;2023-01-29T13:16:52;98843.72;;;0.11;64.71
9423;BME280;65863;49.506;10.400;2023-01-29T13:19:43;98916.59;;;0.60;64.29
9423;BME280;65863;49.506;10.400;2023-01-29T13:22:35;98900.81;;;0.33;64.33
9423;BME280;65863;49.506;10.400;2023-01-29T13:25:21;98940.09;;;0.28;64.12
9423;BME280;65863;49.506;10.400;2023-01-29T13:28:05;98906.41;;;-0.45;64.50
9423;BME280;65863;49.506;10.400;2023-01-29T13:31:11;98941.84;;;-0.34;64.63
9423;BME280;65863;49.506;10.400;2023-01-29T13:36:48;98924.34;;;-0.49;65.57
9423;BME280;65863;49.506;10.400;2023-01-29T13:39:36;98936.88;;;-0.58;66.09
9423;BME280;65863;49.506;10.400;2023-01-29T13:42:38;98927.38;;;-0.57;66.49
9423;BME280;65863;49.506;10.400;2023-01-29T13:45:33;98903.94;;;-0.52;67.24
9423;BME280;65863;49.506;10.400;2023-01-29T13:48:26;98897.50;;;-0.49;67.53
9423;BME280;65863;49.506;10.400;2023-01-29T13:51:13;98880.38;;;-0.44;68.41
9423;BME280;65863;49.506;10.400;2023-01-29T13:54:16;98904.94;;;0.10;68.36
9423;BME280;65863;49.506;10.400;2023-01-29T13:57:03;98897.88;;;0.37;68.62
9423;BME280;65863;49.506;10.400;2023-01-29T14:02:32;98912.91;;;0.54;67.26
9423;BME280;65863;49.506;10.400;2023-01-29T14:15:12;98840.81;;;-0.41;66.02
9423;BME280;65863;49.506;10.400;2023-01-29T14:17:31;98878.25;;;-0.12;66.29
9423;BME280;65863;49.506;10.400;2023-01-29T14:20:17;98882.84;;;-0.09;66.33
9423;BME280;65863;49.506;10.400;2023-01-29T14:23:04;98879.94;;;-0.05;66.64
9423;BME280;65863;49.506;10.400;2023-01-29T14:25:49;98886.06;;;0.08;66.75
9423;BME280;65863;49.506;10.400;2023-01-29T14:28:33;98909.22;;;0.48;67.07
9423;BME280;65863;49.506;10.400;2023-01-29T14:31:54;98905.22;;;0.67;67.00
9423;BME280;65863;49.506;10.400;2023-01-29T14:37:33;98878.41;;;0.22;65.93
9423;BME280;65863;49.506;10.400;2023-01-29T14:40:21;98875.66;;;0.03;65.79
9423;BME280;65863;49.506;10.400;2023-01-29T14:43:08;98900.03;;;0.42;66.46
9423;BME280;65863;49.506;10.400;2023-01-29T14:52:39;98850.78;;;0.31;66.38
9423;BME280;65863;49.506;10.400;2023-01-29T14:55:36;98867.84;;;0.20;66.02
9423;BME280;65863;49.506;10.400;2023-01-29T14:58:48;98881.78;;;0.26;65.90
9423;BME280;65863;49.506;10.400;2023-01-29T15:01:37;98871.50;;;0.08;66.14
9423;BME280;65863;49.506;10.400;2023-01-29T15:07:50;98847.09;;;-0.03;66.89
9423;BME280;65863;49.506;10.400;2023-01-29T15:10:39;98875.34;;;0.10;67.08
9423;BME280;65863;49.506;10.400;2023-01-29T15:13:32;98810.47;;;-0.41;67.00
9423;BME280;65863;49.506;10.400;2023-01-29T15:16:23;98835.28;;;-0.31;67.52
9423;BME280;65863;49.506;10.400;2023-01-29T15:19:24;98846.50;;;-0.35;67.68
9423;BME280;65863;49.506;10.400;2023-01-29T15:22:14;98870.88;;;-0.24;68.11
9423;BME280;65863;49.506;10.400;2023-01-29T15:25:12;98868.72;;;-0.29;68.39
9423;BME280;65863;49.506;10.400;2023-01-29T15:27:57;98846.31;;;-0.50;68.71
9423;BME280;65863;49.506;10.400;2023-01-29T15:30:41;98850.56;;;-0.58;68.55
9423;BME280;65863;49.506;10.400;2023-01-29T15:33:26;98855.78;;;-0.60;68.84
9423;BME280;65863;49.506;10.400;2023-01-29T15:36:37;98857.63;;;-0.57;69.30
9423;BME280;65863;49.506;10.400;2023-01-29T15:39:24;98851.94;;;-0.72;69.75
9423;BME280;65863;49.506;10.400;2023-01-29T15:42:12;98848.84;;;-0.83;69.84
9423;BME280;65863;49.506;10.400;2023-01-29T15:44:58;98839.91;;;-0.97;70.12
9423;BME280;65863;49.506;10.400;2023-01-29T15:47:42;98842.03;;;-1.01;70.39
9423;BME280;65863;49.506;10.400;2023-01-29T15:50:27;98858.72;;;-1.05;70.85
9423;BME280;65863;49.506;10.400;2023-01-29T15:53:15;98864.53;;;-1.02;71.45
9423;BME280;65863;49.506;10.400;2023-01-29T15:56:00;98856.28;;;-1.02;71.71
9423;BME280;65863;49.506;10.400;2023-01-29T15:58:49;98844.25;;;-1.18;71.84
9423;BME280;65863;49.506;10.400;2023-01-29T16:01:34;98838.41;;;-1.29;72.09
9423;BME280;65863;49.506;10.400;2023-01-29T16:04:26;98866.09;;;-1.33;72.61
9423;BME280;65863;49.506;10.400;2023-01-29T16:07:13;98833.06;;;-1.55;72.85
9423;BME280;65863;49.506;10.400;2023-01-29T16:09:58;98842.16;;;-1.45;73.48
9423;BME280;65863;49.506;10.400;2023-01-29T16:12:42;98708.94;;;-2.46;73.51
9423;BME280;65863;49.506;10.400;2023-01-29T16:15:37;98857.28;;;-1.50;74.29
9423;BME280;65863;49.506;10.400;2023-01-29T16:18:34;98854.78;;;-1.57;74.67
9423;BME280;65863;49.506;10.400;2023-01-29T16:24:11;98836.88;;;-1.84;75.37
9423;BME280;65863;49.506;10.400;2023-01-29T16:26:59;98773.88;;;-2.26;75.75
9423;BME280;65863;49.506;10.400;2023-01-29T16:29:45;98823.94;;;-1.96;75.99
9423;BME280;65863;49.506;10.400;2023-01-29T16:32:29;98816.38;;;-2.05;76.67
9423;BME280;65863;49.506;10.400;2023-01-29T16:35:15;98827.03;;;-1.94;77.03
9423;BME280;65863;49.506;10.400;2023-01-29T16:38:03;98814.97;;;-2.10;77.19
9423;BME280;65863;49.506;10.400;2023-01-29T16:41:07;98833.19;;;-2.03;77.68
9423;BME280;65863;49.506;10.400;2023-01-29T16:47:09;98839.50;;;-2.02;78.43
9423;BME280;65863;49.506;10.400;2023-01-29T16:50:00;98819.69;;;-2.10;78.61
9423;BME280;65863;49.506;10.400;2023-01-29T16:55:46;98750.09;;;-2.42;79.14
9423;BME280;65863;49.506;10.400;2023-01-29T16:58:32;98832.34;;;-2.00;79.11
9423;BME280;65863;49.506;10.400;2023-01-29T17:01:16;98832.34;;;-2.00;79.30
9423;BME280;65863;49.506;10.400;2023-01-29T17:04:12;98808.88;;;-2.27;79.19